Airfield :
LOGIN :

Register | Disclaimer

   EN    FR    IT 

 










Legend :    VFR   Marginal VFR   IFR   Intensive IFR   Very Intensive IFR
Visi :
Ceiling :
>= 8 km
>= 3000ft
5 to 8 km
1000 to 3000 ft
1500m to 5 km
500 to 1000 ft
800 to 1500m
200 to 500 ft
< 800m
< 200 ft
Symbols :   Thunderstorms  Fog  Heavy snow  Heavy precipitations  Wind > 20 kt
SIGMETs :     Misc.  Thunderstorms  Icing  Turbulence  Mountain Waves  Volcanic Ashes







- Airport Elevation : 26 ft
- IATA code : GLA
- Download approach charts


EGPF - Glasgow

CURRENT METAR :
  • 121550Z AUTO VRB03KT 2900 -RA SCT015/// BKN019/// //////TCU 01/00 Q0998 RERA

EXPIRED METARs :
  • 121520Z AUTO 07004KT 040V100 8000 -RA BKN015/// OVC027/// //////TCU 01/M00 Q0999 RERA REDZ
  • 121450Z AUTO 02004KT 3500 -RASN BKN016/// BKN022/// BKN027/// //////TCU 01/M00 Q0999 RERA
  • 121420Z AUTO 06004KT 2900 -RA FEW015/// SCT023/// BKN035/// //////CB 00/M01 Q1000
  • 121350Z AUTO 06004KT 9999 SCT021 BKN031 BKN039 M00/M02 Q1000
  • 121320Z AUTO 09004KT 050V170 9999 SCT019 M01/M02 Q1001
  • 121250Z AUTO VRB03KT 9999 BKN012 BKN017 M01/M03 Q1001

TAF AMD TAF EGPF
Valid from the 12 at 14:00 until the 13 at 12:00 UTC


121457Z 1214/1312 VRB03KT 9999 SCT015 BKN020
TEMPO 1214/1216 3000 RA -RASN BKN008
BECMG 1215/1218 21010KT
TEMPO 1216/1220 4000 -RADZ BKN010
PROB40
TEMPO 1216/1219 RADZ BKN005
PROB40
TEMPO 1216/1219 21015G25KT
PROB30
TEMPO 1220/1302 7000 SHRA BKN012
TEMPO 1302/1308 6000 SHRA BKN009
PROB40
TEMPO 1304/1307 23018G28KT
PROB30
TEMPO 1308/1312 23015G25KT 4000 -SHRASN SHRAGS BKN007
ATIS : +44 141 887 7449
No reported NOTAMs for that airfield.



MET'MAP, your aeronautical weather chart ! - Copyright ORBIFLY December 2007 - Disclaimer

ORBIFLY MET'MAP TEAM :

Programming & Development : Alexandra Zaïnal
Concept & Development : Baudouin d'Aumeries
Co-Development & Prog : Marc-Olivier Méhu
Technical & hardware support : Manuel Goepfert

Contact : metmap@orbifly.com




SOURCES & CREDITS :

   NOAA